createdAt,value
2017-04-18T00:01:00.833Z,2.52
2017-04-18T00:02:22.912Z,2.31
2017-04-18T00:03:44.742Z,2.25
2017-04-18T00:05:06.603Z,2.24
2017-04-18T00:06:28.108Z,2.16
2017-04-18T00:07:50.527Z,2.03
2017-04-18T00:09:12.410Z,2
2017-04-18T00:10:34.593Z,1.99
2017-04-18T00:11:56.552Z,1.98
2017-04-18T00:13:18.740Z,1.95
2017-04-18T00:14:40.558Z,1.98
2017-04-18T00:16:03.055Z,2.02
2017-04-18T00:17:24.558Z,2.1
2017-04-18T00:18:47.050Z,2.17
2017-04-18T00:20:09.500Z,2.17
2017-04-18T00:21:31.961Z,2.03
2017-04-18T00:22:54.137Z,2.06
2017-04-18T00:24:16.881Z,1.93
2017-04-18T00:25:38.697Z,1.93
2017-04-18T00:27:00.850Z,1.91
2017-04-18T00:28:23.017Z,1.86
2017-04-18T00:29:45.660Z,1.79
2017-04-18T00:31:07.459Z,1.7
2017-04-18T00:32:29.596Z,1.63
2017-04-18T00:33:51.830Z,1.65
2017-04-18T00:35:13.991Z,1.73
2017-04-18T00:36:36.002Z,1.86
2017-04-18T00:37:58.251Z,2.12
2017-04-18T00:39:20.746Z,2.21
2017-04-18T00:40:43.557Z,2.17
2017-04-18T00:42:05.798Z,2.17
2017-04-18T00:43:27.629Z,2.1
2017-04-18T00:44:49.176Z,2.1
2017-04-18T00:46:11.681Z,2.02
2017-04-18T00:47:34.105Z,2.05
2017-04-18T00:48:56.685Z,1.91
2017-04-18T00:50:19.146Z,1.98
2017-04-18T00:51:41.555Z,1.8
2017-04-18T00:53:03.440Z,1.83
2017-04-18T00:54:25.590Z,1.81
2017-04-18T00:55:47.654Z,1.8
2017-04-18T00:57:09.100Z,1.8
2017-04-18T00:58:31.248Z,1.68
2017-04-18T00:59:53.060Z,1.68
2017-04-18T01:01:15.509Z,1.6
2017-04-18T01:02:36.949Z,1.59
2017-04-18T01:03:58.858Z,1.6
2017-04-18T01:05:21.353Z,1.42
2017-04-18T01:06:43.315Z,1.4
2017-04-18T01:08:05.530Z,1.26
2017-04-18T01:09:27.749Z,1.08
2017-04-18T01:10:49.254Z,1.05
2017-04-18T01:12:11.075Z,1.09
2017-04-18T01:13:33.150Z,0.97
2017-04-18T01:14:54.660Z,0.93
2017-04-18T01:16:16.809Z,0.9
2017-04-18T01:17:38.624Z,0.9
2017-04-18T01:19:01.329Z,0.93
2017-04-18T01:20:23.813Z,0.8
2017-04-18T01:21:45.632Z,0.78
2017-04-18T01:23:07.979Z,0.78
2017-04-18T01:24:30.426Z,0.72
2017-04-18T01:25:51.938Z,0.75
2017-04-18T01:27:13.438Z,0.68
2017-04-18T01:28:35.550Z,0.7
2017-04-18T01:29:58.280Z,0.79
2017-04-18T01:31:20.103Z,0.75
2017-04-18T01:32:42.225Z,0.75
2017-04-18T01:34:04.390Z,0.66
2017-04-18T01:35:26.471Z,0.6
2017-04-18T01:36:48.627Z,0.57
2017-04-18T01:38:10.607Z,0.66
2017-04-18T01:39:32.840Z,0.68
2017-04-18T01:40:55.341Z,0.68
2017-04-18T01:42:16.966Z,0.57
2017-04-18T01:43:38.464Z,0.58
2017-04-18T01:45:00.300Z,0.57
2017-04-18T01:46:21.770Z,0.61
2017-04-18T01:47:43.935Z,0.58
2017-04-18T01:49:05.471Z,0.66
2017-04-18T01:50:27.632Z,0.6
2017-04-18T01:51:49.748Z,0.6
2017-04-18T01:53:11.891Z,0.61
2017-04-18T01:54:34.030Z,0.6
2017-04-18T01:55:56.188Z,0.62
2017-04-18T01:57:19.088Z,0.62
2017-04-18T01:58:40.920Z,0.57
2017-04-18T02:00:03.377Z,0.58
2017-04-18T02:01:25.500Z,0.55
2017-04-18T02:02:47.968Z,0.57
2017-04-18T02:04:09.781Z,0.55
2017-04-18T02:05:31.607Z,0.69
2017-04-18T02:06:53.469Z,0.57
2017-04-18T02:08:15.565Z,0.55
2017-04-18T02:09:37.131Z,0.6
2017-04-18T02:10:58.948Z,0.6
2017-04-18T02:12:21.219Z,0.55
2017-04-18T02:13:43.301Z,0.53
2017-04-18T02:15:05.119Z,0.72
2017-04-18T02:16:27.026Z,0.78
2017-04-18T02:17:48.851Z,0.78
2017-04-18T02:19:10.927Z,0.83
2017-04-18T02:20:33.108Z,0.91
2017-04-18T02:21:54.796Z,0.97
2017-04-18T02:23:16.709Z,1.09
2017-04-18T02:24:38.848Z,1.15
2017-04-18T02:26:00.329Z,1.22
2017-04-18T02:27:22.210Z,1.3
2017-04-18T02:28:44.676Z,1.32
2017-04-18T02:30:07.330Z,1.34
2017-04-18T02:31:29.472Z,1.41
2017-04-18T02:32:51.292Z,1.58
2017-04-18T02:34:13.435Z,1.51
2017-04-18T02:35:35.605Z,1.6
2017-04-18T02:36:57.885Z,1.58
2017-04-18T02:38:20.027Z,1.55
2017-04-18T02:39:41.842Z,1.59
2017-04-18T02:41:04.230Z,1.58
2017-04-18T02:42:26.108Z,1.63
2017-04-18T02:43:48.394Z,1.55
2017-04-18T02:45:10.576Z,1.51
2017-04-18T02:46:32.815Z,1.48
2017-04-18T02:47:55.326Z,1.47
2017-04-18T02:49:17.140Z,1.41
2017-04-18T02:50:39.395Z,1.48
2017-04-18T02:52:01.189Z,1.34
2017-04-18T02:53:23.332Z,1.34
2017-04-18T02:54:45.527Z,1.24
2017-04-18T02:56:07.997Z,1.15
2017-04-18T02:57:29.931Z,0.98
2017-04-18T02:58:52.439Z,0.88
2017-04-18T03:00:14.884Z,0.88
2017-04-18T03:01:36.767Z,0.8
2017-04-18T03:02:59.056Z,0.76
2017-04-18T03:04:21.014Z,0.66
2017-04-18T03:05:42.205Z,0.68
2017-04-18T03:07:04.454Z,0.6
2017-04-18T03:08:26.988Z,0.51
2017-04-18T03:09:48.180Z,0.58
2017-04-18T03:11:10.507Z,0.49
2017-04-18T03:12:32.442Z,0.55
2017-04-18T03:13:54.550Z,0.51
2017-04-18T03:15:16.691Z,0.76
2017-04-18T03:16:38.948Z,0.91
2017-04-18T03:18:00.507Z,1.15
2017-04-18T03:19:22.257Z,1.16
2017-04-18T03:20:44.078Z,1.27
2017-04-18T03:22:05.869Z,1.29
2017-04-18T03:23:28.362Z,1.36
2017-04-18T03:24:50.758Z,1.41
2017-04-18T03:26:13.329Z,1.59
2017-04-18T03:27:35.269Z,1.65
2017-04-18T03:28:57.809Z,1.77
2017-04-18T03:30:20.509Z,1.88
2017-04-18T03:31:42.331Z,2.02
2017-04-18T03:33:04.170Z,2.21
2017-04-18T03:34:26.004Z,2.25
2017-04-18T03:35:48.068Z,2.31
2017-04-18T03:37:10.003Z,2.45
2017-04-18T03:38:32.464Z,2.49
2017-04-18T03:39:54.278Z,2.56
2017-04-18T03:41:16.401Z,2.59
2017-04-18T03:42:38.675Z,2.53
2017-04-18T03:44:00.629Z,2.49
2017-04-18T03:45:22.595Z,2.54
2017-04-18T03:46:43.718Z,2.63
2017-04-18T03:48:05.228Z,2.63
2017-04-18T03:49:27.438Z,2.67
2017-04-18T03:50:49.800Z,2.74
2017-04-18T03:52:12.175Z,2.82
2017-04-18T03:53:34.315Z,2.81
2017-04-18T03:54:56.228Z,2.79
2017-04-18T03:56:18.055Z,2.79
2017-04-18T03:57:40.105Z,2.81
2017-04-18T03:59:01.618Z,2.92
2017-04-18T04:00:23.781Z,2.84
2017-04-18T04:01:45.682Z,2.96
2017-04-18T04:03:07.857Z,2.99
2017-04-18T04:04:30.055Z,2.99
2017-04-18T04:05:52.188Z,3.14
2017-04-18T04:07:13.718Z,3.14
2017-04-18T04:08:35.779Z,3.21
2017-04-18T04:09:57.608Z,3.17
2017-04-18T04:11:19.453Z,3.14
2017-04-18T04:12:40.940Z,3.18
2017-04-18T04:14:02.756Z,3.29
2017-04-18T04:15:24.048Z,3.32
2017-04-18T04:16:45.566Z,3.35
2017-04-18T04:18:07.403Z,3.31
2017-04-18T04:19:29.521Z,3.32
2017-04-18T04:20:51.048Z,3.43
2017-04-18T04:22:12.687Z,3.51
2017-04-18T04:23:34.708Z,3.31
2017-04-18T04:24:57.129Z,3.33
2017-04-18T04:26:18.950Z,3.31
2017-04-18T04:27:40.466Z,3.29
2017-04-18T04:29:02.318Z,3.45
2017-04-18T04:30:24.834Z,3.47
2017-04-18T04:31:46.668Z,3.35
2017-04-18T04:33:08.808Z,3.47
2017-04-18T04:34:30.318Z,3.51
2017-04-18T04:35:52.189Z,3.54
2017-04-18T04:37:14.346Z,3.58
2017-04-18T04:38:36.609Z,3.5
2017-04-18T04:39:58.118Z,3.39
2017-04-18T04:41:19.606Z,3.45
2017-04-18T04:42:41.458Z,3.39
2017-04-18T04:44:03.278Z,3.47
2017-04-18T04:45:24.778Z,3.43
2017-04-18T04:46:47.629Z,3.45
2017-04-18T04:48:09.136Z,3.47
2017-04-18T04:49:31.302Z,3.42
2017-04-18T04:50:53.460Z,3.35
2017-04-18T04:52:15.855Z,3.45
2017-04-18T04:53:37.818Z,3.6
2017-04-18T04:55:00.310Z,3.48
2017-04-18T04:56:22.125Z,3.55
2017-04-18T04:57:44.460Z,3.72
2017-04-18T04:59:06.609Z,3.7
2017-04-18T05:00:28.091Z,4
2017-04-18T05:01:50.081Z,4.2
2017-04-18T05:03:12.156Z,4.14
2017-04-18T05:04:34.299Z,3.97
2017-04-18T05:05:56.120Z,3.98
2017-04-18T05:07:18.400Z,4.02
2017-04-18T05:08:40.489Z,4.06
2017-04-18T05:10:02.618Z,4.05
2017-04-18T05:11:24.114Z,3.97
2017-04-18T05:12:46.239Z,3.98
2017-04-18T05:14:08.693Z,4.02
2017-04-18T05:15:29.561Z,3.94
2017-04-18T05:16:51.800Z,3.98
2017-04-18T05:18:13.611Z,3.9
2017-04-18T05:19:36.330Z,3.91
2017-04-18T05:20:58.208Z,3.9
2017-04-18T05:22:20.027Z,3.88
2017-04-18T05:23:42.194Z,3.96
2017-04-18T05:25:04.644Z,3.91
2017-04-18T05:26:26.679Z,3.91
2017-04-18T05:27:49.309Z,3.96
2017-04-18T05:29:10.866Z,3.94
2017-04-18T05:30:32.939Z,3.98
2017-04-18T05:31:54.747Z,4.02
2017-04-18T05:33:16.898Z,4.05
2017-04-18T05:34:38.566Z,4.14
2017-04-18T05:36:00.776Z,4.22
2017-04-18T05:37:22.725Z,4.24
2017-04-18T05:38:45.210Z,4.32
2017-04-18T05:40:06.738Z,4.33
2017-04-18T05:41:28.807Z,4.5
2017-04-18T05:42:51.270Z,4.48
2017-04-18T05:44:13.089Z,4.54
2017-04-18T05:45:34.276Z,4.58
2017-04-18T05:46:56.809Z,4.59
2017-04-18T05:48:18.671Z,4.7
2017-04-18T05:49:40.819Z,4.63
2017-04-18T05:51:02.629Z,4.54
2017-04-18T05:52:24.816Z,4.59
2017-04-18T05:53:46.349Z,4.63
2017-04-18T05:55:07.869Z,4.54
2017-04-18T05:56:29.707Z,4.58
2017-04-18T05:57:51.452Z,4.59
2017-04-18T05:59:13.305Z,4.77
2017-04-18T06:00:35.218Z,4.78
2017-04-18T06:01:56.467Z,4.77
2017-04-18T06:03:19.569Z,4.86
2017-04-18T06:04:41.712Z,4.75
2017-04-18T06:06:03.850Z,4.8
2017-04-18T06:07:26.309Z,4.88
2017-04-18T06:08:48.722Z,4.88
2017-04-18T06:10:10.940Z,4.99
2017-04-18T06:11:33.082Z,4.92
2017-04-18T06:12:54.296Z,5.02
2017-04-18T06:14:16.419Z,5.21
2017-04-18T06:15:38.230Z,5.2
2017-04-18T06:17:00.379Z,5.25
2017-04-18T06:18:22.862Z,5.17
2017-04-18T06:19:45.409Z,5.13
2017-04-18T06:21:07.258Z,5.1
2017-04-18T06:22:29.422Z,5.21
2017-04-18T06:23:51.881Z,5.49
2017-04-18T06:25:14.342Z,5.61
2017-04-18T06:26:36.160Z,5.83
2017-04-18T06:27:57.421Z,5.79
2017-04-18T06:29:19.586Z,5.68
2017-04-18T06:30:42.126Z,5.42
2017-04-18T06:32:03.498Z,5.36
2017-04-18T06:33:25.694Z,5.42
2017-04-18T06:34:48.229Z,5.36
2017-04-18T06:36:09.779Z,5.49
2017-04-18T06:37:31.693Z,5.54
2017-04-18T06:38:53.526Z,5.56
2017-04-18T06:40:15.689Z,5.54
2017-04-18T06:41:38.053Z,5.64
2017-04-18T06:43:00.188Z,5.53
2017-04-18T06:44:22.339Z,5.51
2017-04-18T06:45:44.522Z,5.42
2017-04-18T06:47:06.995Z,5.43
2017-04-18T06:48:28.820Z,5.61
2017-04-18T06:49:50.665Z,5.68
2017-04-18T06:51:13.160Z,5.79
2017-04-18T06:52:35.557Z,5.71
2017-04-18T06:53:57.067Z,5.78
2017-04-18T06:55:19.539Z,5.79
2017-04-18T06:56:41.812Z,5.75
2017-04-18T06:58:04.223Z,5.86
2017-04-18T06:59:25.098Z,5.82
2017-04-18T07:00:47.250Z,5.82
2017-04-18T07:02:09.058Z,5.79
2017-04-18T07:03:30.856Z,5.65
2017-04-18T07:04:52.840Z,5.43
2017-04-18T07:06:14.025Z,5.45
2017-04-18T07:07:35.379Z,5.54
2017-04-18T07:08:57.319Z,5.49
2017-04-18T07:10:19.849Z,5.54
2017-04-18T07:11:41.756Z,5.63
2017-04-18T07:13:02.971Z,5.65
2017-04-18T07:14:25.106Z,5.82
2017-04-18T07:15:47.238Z,5.97
2017-04-18T07:17:09.449Z,5.97
2017-04-18T07:18:31.059Z,6.08
2017-04-18T07:19:53.588Z,6.12
2017-04-18T07:21:15.710Z,6.3
2017-04-18T07:22:38.011Z,6.28
2017-04-18T07:24:00.164Z,6.25
2017-04-18T07:25:22.621Z,6.22
2017-04-18T07:26:44.854Z,6.22
2017-04-18T07:28:06.390Z,6.34
2017-04-18T07:29:28.221Z,6.44
2017-04-18T07:30:50.645Z,6.4
2017-04-18T07:32:12.176Z,6.37
2017-04-18T07:33:34.006Z,6.37
2017-04-18T07:34:55.829Z,6.41
2017-04-18T07:36:18.225Z,6.27
2017-04-18T07:37:40.379Z,6.17
2017-04-18T07:39:02.264Z,6.21
2017-04-18T07:40:24.400Z,6.33
2017-04-18T07:41:47.252Z,6.59
2017-04-18T07:43:09.705Z,6.77
2017-04-18T07:44:31.880Z,6.71
2017-04-18T07:45:53.721Z,6.85
2017-04-18T07:47:15.264Z,6.95
2017-04-18T07:48:37.556Z,6.97
2017-04-18T07:49:59.728Z,7.25
2017-04-18T07:51:21.575Z,7.12
2017-04-18T07:52:43.329Z,7.2
2017-04-18T07:54:05.464Z,7.17
2017-04-18T07:55:27.307Z,7.21
2017-04-18T07:56:49.600Z,7.09
2017-04-18T07:58:11.828Z,7.3
2017-04-18T07:59:33.050Z,7.39
2017-04-18T08:00:55.053Z,7.15
2017-04-18T08:02:17.227Z,6.79
2017-04-18T08:03:39.309Z,6.85
2017-04-18T08:05:00.817Z,6.85
2017-04-18T08:06:22.670Z,7.12
2017-04-18T08:07:44.816Z,7.15
2017-04-18T08:09:06.584Z,7.35
2017-04-18T08:10:28.460Z,7.77
2017-04-18T08:11:50.952Z,7.74
2017-04-18T08:13:12.787Z,7.34
2017-04-18T08:14:35.269Z,7.12
2017-04-18T08:15:57.415Z,7.42
2017-04-18T08:17:19.687Z,7.28
2017-04-18T08:18:42.169Z,7.37
2017-04-18T08:20:04.709Z,7.25
2017-04-18T08:21:26.550Z,7.46
2017-04-18T08:22:48.709Z,7.49
2017-04-18T08:24:10.535Z,7.42
2017-04-18T08:25:32.671Z,7.55
2017-04-18T08:26:54.808Z,7.6
2017-04-18T08:28:16.999Z,8.07
2017-04-18T08:29:38.862Z,8.19
2017-04-18T08:31:00.010Z,8.2
2017-04-18T08:32:22.289Z,8.29
2017-04-18T08:33:44.472Z,8.5
2017-04-18T08:35:06.319Z,8.36
2017-04-18T08:36:28.474Z,8.19
2017-04-18T08:37:50.309Z,8.11
2017-04-18T08:39:12.651Z,8.36
2017-04-18T08:40:34.169Z,8.52
2017-04-18T08:41:55.622Z,8.77
2017-04-18T08:43:17.780Z,8.96
2017-04-18T08:44:39.637Z,9.56
2017-04-18T08:46:01.523Z,9.58
2017-04-18T08:47:23.683Z,9.57
2017-04-18T08:48:45.316Z,9.79
2017-04-18T08:50:07.841Z,9.68
2017-04-18T08:51:29.687Z,9.57
2017-04-18T08:52:52.127Z,9.23
2017-04-18T08:54:14.441Z,9.4
2017-04-18T08:55:36.620Z,9.78
2017-04-18T08:56:58.805Z,9.83
2017-04-18T08:58:21.386Z,9.54
2017-04-18T08:59:43.313Z,8.92
2017-04-18T09:01:05.214Z,8.52
2017-04-18T09:02:27.369Z,8.18
2017-04-18T09:03:49.148Z,8.25
2017-04-18T09:05:10.991Z,8.18
2017-04-18T09:06:33.227Z,7.97
2017-04-18T09:07:54.428Z,7.75
2017-04-18T09:09:16.900Z,8.05
2017-04-18T09:10:39.372Z,8.11
2017-04-18T09:12:01.303Z,8.4
2017-04-18T09:13:23.538Z,8.47
2017-04-18T09:14:45.775Z,8.08
2017-04-18T09:16:07.922Z,8.04
2017-04-18T09:17:30.078Z,8.33
2017-04-18T09:18:51.909Z,8.7
2017-04-18T09:20:14.109Z,8.76
2017-04-18T09:21:35.957Z,8.44
2017-04-18T09:22:58.438Z,8.56
2017-04-18T09:24:20.039Z,8.58
2017-04-18T09:25:42.443Z,8.45
2017-04-18T09:27:04.875Z,8.25
2017-04-18T09:28:25.772Z,8.34
2017-04-18T09:29:47.699Z,8.16
2017-04-18T09:31:10.287Z,8
2017-04-18T09:32:32.469Z,8.07
2017-04-18T09:33:54.298Z,8.01
2017-04-18T09:35:15.800Z,8.05
2017-04-18T09:36:38.303Z,7.9
2017-04-18T09:38:00.533Z,8.41
2017-04-18T09:39:23.029Z,9.24
2017-04-18T09:40:45.199Z,9.74
2017-04-18T09:42:07.881Z,9.91
2017-04-18T09:43:29.927Z,9.78
2017-04-18T09:44:51.139Z,9.53
2017-04-18T09:46:12.699Z,9.4
2017-04-18T09:47:34.909Z,8.95
2017-04-18T09:48:56.795Z,8.59
2017-04-18T09:50:18.652Z,8.43
2017-04-18T09:51:40.626Z,8.8
2017-04-18T09:53:02.937Z,9.02
2017-04-18T09:54:24.826Z,9.29
2017-04-18T09:55:47.056Z,9.43
2017-04-18T09:57:09.551Z,9.61
2017-04-18T09:58:32.128Z,9.42
2017-04-18T09:59:54.618Z,9.6
2017-04-18T10:01:17.036Z,9.69
2017-04-18T10:02:38.887Z,10.15
2017-04-18T10:04:01.344Z,10.3
2017-04-18T10:05:23.219Z,10.71
2017-04-18T10:06:45.842Z,10.97
2017-04-18T10:08:08.007Z,10.99
2017-04-18T10:09:30.706Z,11.02
2017-04-18T10:10:52.558Z,10.78
2017-04-18T10:12:14.715Z,10.4
2017-04-18T10:13:36.016Z,10.22
2017-04-18T10:14:58.995Z,9.87
2017-04-18T10:16:20.832Z,9.96
2017-04-18T10:17:42.682Z,10.09
2017-04-18T10:19:04.536Z,10.29
2017-04-18T10:20:26.982Z,10.15
2017-04-18T10:21:48.831Z,9.58
2017-04-18T10:23:10.687Z,9.58
2017-04-18T10:24:32.840Z,9.32
2017-04-18T10:25:54.948Z,9.32
2017-04-18T10:27:17.137Z,8.96
2017-04-18T10:28:38.667Z,8.96
2017-04-18T10:30:00.176Z,8.98
2017-04-18T10:31:22.585Z,9.11
2017-04-18T10:32:44.279Z,9.15
2017-04-18T10:34:06.423Z,9.21
2017-04-18T10:35:28.262Z,8.94
2017-04-18T10:36:50.025Z,8.83
2017-04-18T10:38:12.092Z,8.83
2017-04-18T10:39:34.247Z,8.71
2017-04-18T10:40:56.399Z,8.74
2017-04-18T10:42:18.804Z,8.65
2017-04-18T10:43:40.665Z,8.4
2017-04-18T10:45:02.840Z,8.44
2017-04-18T10:46:24.700Z,8.59
2017-04-18T10:47:46.799Z,8.52
2017-04-18T10:49:09.368Z,8.33
2017-04-18T10:50:31.238Z,8.29
2017-04-18T10:51:52.774Z,8.33
2017-04-18T10:53:15.035Z,8.99
2017-04-18T10:54:37.390Z,9.68
2017-04-18T10:55:59.551Z,9.71
2017-04-18T10:57:21.088Z,9.68
2017-04-18T10:58:43.238Z,9.64
2017-04-18T11:00:05.243Z,9.24
2017-04-18T11:01:26.757Z,9.08
2017-04-18T11:02:48.925Z,8.77
2017-04-18T11:04:10.691Z,8.4
2017-04-18T11:05:32.519Z,8.4
2017-04-18T11:06:54.669Z,8.45
2017-04-18T11:08:16.493Z,8.36
2017-04-18T11:09:37.947Z,8.19
2017-04-18T11:10:59.236Z,7.93
2017-04-18T11:12:21.096Z,7.74
2017-04-18T11:13:42.953Z,7.61
2017-04-18T11:15:05.046Z,7.53
2017-04-18T11:16:27.216Z,7.43
2017-04-18T11:17:48.733Z,7.4
2017-04-18T11:19:10.570Z,7.32
2017-04-18T11:20:32.972Z,7.37
2017-04-18T11:21:55.524Z,7.52
2017-04-18T11:23:17.678Z,7.74
2017-04-18T11:24:39.530Z,8.15
2017-04-18T11:26:02.277Z,8.38
2017-04-18T11:27:24.253Z,8.18
2017-04-18T11:28:46.180Z,8.34
2017-04-18T11:30:07.738Z,8.41
2017-04-18T11:31:30.140Z,8.38
2017-04-18T11:32:51.989Z,8.55
2017-04-18T11:34:13.609Z,8.53
2017-04-18T11:35:36.099Z,8.73
2017-04-18T11:36:57.854Z,9.05
2017-04-18T11:38:20.059Z,8.96
2017-04-18T11:39:42.350Z,9.17
2017-04-18T11:41:04.488Z,9.29
2017-04-18T11:42:27.260Z,9.28
2017-04-18T11:43:49.086Z,9.4
2017-04-18T11:45:11.329Z,9.21
2017-04-18T11:46:33.154Z,9.11
2017-04-18T11:47:55.646Z,9.1
2017-04-18T11:49:16.969Z,9.2
2017-04-18T11:50:39.117Z,9.14
2017-04-18T11:52:01.288Z,9.13
2017-04-18T11:53:23.734Z,9.35
2017-04-18T11:54:46.286Z,9.29
2017-04-18T11:56:08.506Z,9.65
2017-04-18T11:57:30.661Z,9.58
2017-04-18T11:58:53.168Z,9.65
2017-04-18T12:00:15.577Z,9.47
2017-04-18T12:01:37.425Z,9.54
2017-04-18T12:02:59.960Z,9.94
2017-04-18T12:04:22.174Z,9.86
2017-04-18T12:05:44.079Z,9.71
2017-04-18T12:07:06.013Z,10.05
2017-04-18T12:08:27.548Z,10.09
2017-04-18T12:09:49.478Z,10.3
2017-04-18T12:11:11.670Z,10.27
2017-04-18T12:12:34.217Z,10.41
2017-04-18T12:13:56.378Z,10.48
2017-04-18T12:15:19.168Z,10.45
2017-04-18T12:16:41.403Z,10.81
2017-04-18T12:18:03.714Z,10.68
2017-04-18T12:19:25.577Z,10.64
2017-04-18T12:20:48.416Z,10.53
2017-04-18T12:22:11.006Z,9.89
2017-04-18T12:23:32.877Z,10.02
2017-04-18T12:24:54.406Z,9.78
2017-04-18T12:26:17.142Z,9.56
2017-04-18T12:27:38.677Z,10.01
2017-04-18T12:29:00.830Z,10.01
2017-04-18T12:30:23.173Z,10.47
2017-04-18T12:31:45.754Z,10.7
2017-04-18T12:33:08.045Z,10.48
2017-04-18T12:34:29.897Z,10.42
2017-04-18T12:35:51.855Z,10.07
2017-04-18T12:37:14.317Z,10.17
2017-04-18T12:38:36.547Z,10.26
2017-04-18T12:39:58.394Z,10.12
2017-04-18T12:41:20.270Z,10.3
2017-04-18T12:42:43.007Z,10.59
2017-04-18T12:44:04.265Z,10.22
2017-04-18T12:45:26.424Z,10.08
2017-04-18T12:46:48.904Z,9.97
2017-04-18T12:48:11.424Z,10.12
2017-04-18T12:49:34.066Z,10.11
2017-04-18T12:50:56.214Z,10.4
2017-04-18T12:52:17.732Z,10.55
2017-04-18T12:53:39.934Z,9.96
2017-04-18T12:55:01.817Z,10.23
2017-04-18T12:56:23.722Z,10.11
2017-04-18T12:57:44.924Z,9.89
2017-04-18T12:59:07.041Z,9.56
2017-04-18T13:00:29.200Z,9.89
2017-04-18T13:01:51.058Z,9.76
2017-04-18T13:03:13.509Z,9.76
2017-04-18T13:04:35.914Z,9.93
2017-04-18T13:05:58.149Z,10.07
2017-04-18T13:07:19.976Z,10.44
2017-04-18T13:08:42.135Z,10.64
2017-04-18T13:10:04.595Z,10.51
2017-04-18T13:11:26.848Z,10.53
2017-04-18T13:12:49.103Z,10.82
2017-04-18T13:14:11.319Z,10.88
2017-04-18T13:15:33.884Z,10.91
2017-04-18T13:16:56.364Z,10.63
2017-04-18T13:18:18.239Z,10.38
2017-04-18T13:19:40.151Z,10.27
2017-04-18T13:21:02.888Z,10.17
2017-04-18T13:22:24.850Z,9.93
2017-04-18T13:23:46.753Z,10.11
2017-04-18T13:25:08.741Z,9.83
2017-04-18T13:26:31.242Z,9.99
2017-04-18T13:27:53.804Z,10.17
2017-04-18T13:29:15.643Z,9.78
2017-04-18T13:30:37.778Z,10.11
2017-04-18T13:32:00.282Z,10.01
2017-04-18T13:33:22.153Z,9.89
2017-04-18T13:34:43.689Z,9.83
2017-04-18T13:36:05.818Z,9.66
2017-04-18T13:37:28.243Z,10.11
2017-04-18T13:38:49.432Z,10.02
2017-04-18T13:40:11.585Z,9.66
2017-04-18T13:41:33.797Z,9.53
2017-04-18T13:42:56.189Z,9.56
2017-04-18T13:44:18.692Z,9.64
2017-04-18T13:45:40.531Z,9.57
2017-04-18T13:47:03.039Z,9.47
2017-04-18T13:48:25.435Z,9.43
2017-04-18T13:49:47.582Z,9.48
2017-04-18T13:51:09.779Z,9.29
2017-04-18T13:52:31.666Z,9.4
2017-04-18T13:53:53.476Z,9.69
2017-04-18T13:55:15.656Z,9.65
2017-04-18T13:56:37.614Z,9.76
2017-04-18T13:57:59.826Z,10.22
2017-04-18T13:59:22.329Z,10.38
2017-04-18T14:00:44.807Z,10.17
2017-04-18T14:02:06.366Z,9.65
2017-04-18T14:03:28.197Z,10.02
2017-04-18T14:04:50.449Z,10.26
2017-04-18T14:06:12.685Z,10.38
2017-04-18T14:07:34.531Z,10.52
2017-04-18T14:08:57.007Z,10.89
2017-04-18T14:10:19.203Z,10.81
2017-04-18T14:11:41.277Z,10.73
2017-04-18T14:13:03.483Z,10.41
2017-04-18T14:14:26.099Z,10.26
2017-04-18T14:15:48.507Z,9.97
2017-04-18T14:17:10.430Z,9.93
2017-04-18T14:18:32.943Z,9.28
2017-04-18T14:19:54.455Z,9.26
2017-04-18T14:21:16.697Z,9.2
2017-04-18T14:22:38.929Z,9.56
2017-04-18T14:24:01.083Z,9.61
2017-04-18T14:25:23.240Z,9.68
2017-04-18T14:26:45.971Z,9.81
2017-04-18T14:28:06.860Z,9.86
2017-04-18T14:29:28.879Z,10.15
2017-04-18T14:30:50.807Z,10.23
2017-04-18T14:32:13.570Z,10.18
2017-04-18T14:33:35.737Z,10.11
2017-04-18T14:34:57.257Z,9.99
2017-04-18T14:36:19.099Z,9.78
2017-04-18T14:37:41.197Z,9.89
2017-04-18T14:39:03.045Z,9.79
2017-04-18T14:40:24.906Z,9.58
2017-04-18T14:41:46.510Z,9.51
2017-04-18T14:43:08.974Z,9.29
2017-04-18T14:44:31.163Z,9.36
2017-04-18T14:45:53.313Z,9.23
2017-04-18T14:47:15.499Z,9.26
2017-04-18T14:48:38.697Z,9.47
2017-04-18T14:50:00.234Z,9.38
2017-04-18T14:51:22.729Z,9.42
2017-04-18T14:52:45.215Z,9.02
2017-04-18T14:54:07.782Z,9.04
2017-04-18T14:55:29.737Z,8.98
2017-04-18T14:56:52.048Z,9.08
2017-04-18T14:58:14.332Z,9.33
2017-04-18T14:59:37.278Z,9.56
2017-04-18T15:00:59.439Z,9.38
2017-04-18T15:02:21.288Z,9.35
2017-04-18T15:03:43.468Z,9.43
2017-04-18T15:05:05.883Z,9.23
2017-04-18T15:06:27.183Z,9.29
2017-04-18T15:07:49.028Z,9.17
2017-04-18T15:09:10.867Z,9.15
2017-04-18T15:10:33.033Z,8.95
2017-04-18T15:11:55.191Z,8.89
2017-04-18T15:13:17.987Z,8.87
2017-04-18T15:14:39.827Z,8.8
2017-04-18T15:16:02.248Z,8.94
2017-04-18T15:17:24.178Z,8.94
2017-04-18T15:18:46.136Z,9.02
2017-04-18T15:20:08.467Z,8.99
2017-04-18T15:21:30.879Z,8.94
2017-04-18T15:22:53.422Z,8.95
2017-04-18T15:24:15.584Z,8.98
2017-04-18T15:25:37.547Z,8.8
2017-04-18T15:27:00.355Z,8.68
2017-04-18T15:28:22.548Z,8.84
2017-04-18T15:29:45.078Z,8.65
2017-04-18T15:31:07.558Z,8.81
2017-04-18T15:32:30.029Z,8.95
2017-04-18T15:33:52.485Z,8.96
2017-04-18T15:35:14.964Z,8.84
2017-04-18T15:36:37.147Z,8.8
2017-04-18T15:38:00.521Z,8.8
2017-04-18T15:39:22.431Z,8.86
2017-04-18T15:40:44.432Z,9.04
2017-04-18T15:42:06.349Z,9.23
2017-04-18T15:43:28.878Z,9.38
2017-04-18T15:44:51.078Z,9.39
2017-04-18T15:46:13.913Z,9.11
2017-04-18T15:47:37.729Z,8.94
2017-04-18T15:49:01.421Z,8.96
2017-04-18T15:50:23.951Z,8.73
2017-04-18T15:51:46.467Z,8.34
2017-04-18T15:53:08.975Z,8.04
2017-04-18T15:54:31.411Z,7.97
2017-04-18T15:55:53.586Z,8.1
2017-04-18T15:57:16.097Z,7.95
2017-04-18T15:58:38.600Z,8.19
2017-04-18T16:00:00.079Z,8.37
2017-04-18T16:01:22.578Z,8.71
2017-04-18T16:02:45.137Z,8.7
2017-04-18T16:04:07.138Z,8.89
2017-04-18T16:05:30.128Z,9.1
2017-04-18T16:06:52.270Z,9.05
2017-04-18T16:08:14.830Z,9.32
2017-04-18T16:09:37.757Z,9.24
2017-04-18T16:10:59.853Z,8.96
2017-04-18T16:12:25.721Z,8.84
2017-04-18T16:13:48.208Z,8.65
2017-04-18T16:15:10.438Z,8.65
2017-04-18T16:16:33.227Z,8.58
2017-04-18T16:17:54.762Z,8.43
2017-04-18T16:19:17.298Z,8.7
2017-04-18T16:20:39.797Z,8.58
2017-04-18T16:22:02.419Z,8.3
2017-04-18T16:23:24.927Z,8.48
2017-04-18T16:24:47.404Z,8.4
2017-04-18T16:26:09.608Z,8.4
2017-04-18T16:27:32.137Z,8.41
2017-04-18T16:28:54.320Z,8.47
2017-04-18T16:30:16.486Z,8.45
2017-04-18T16:31:38.358Z,8.43
2017-04-18T16:33:01.087Z,8.61
2017-04-18T16:34:23.267Z,8.68
2017-04-18T16:35:45.439Z,8.56
2017-04-18T16:37:07.960Z,8.48
2017-04-18T16:38:30.369Z,8.53
2017-04-18T16:39:52.347Z,8.38
2017-04-18T16:41:13.908Z,8.47
2017-04-18T16:42:36.070Z,8.47
2017-04-18T16:43:58.151Z,8.43
2017-04-18T16:45:20.008Z,8.56
2017-04-18T16:46:42.248Z,8.47
2017-04-18T16:48:04.435Z,8.66
2017-04-18T16:49:26.675Z,8.47
2017-04-18T16:50:49.084Z,8.33
2017-04-18T16:52:10.708Z,8.2
2017-04-18T16:53:32.926Z,7.95
2017-04-18T16:54:55.747Z,7.8
2017-04-18T16:56:17.910Z,7.85
2017-04-18T16:57:40.518Z,7.83
2017-04-18T16:59:02.869Z,7.89
2017-04-18T17:00:25.695Z,7.93
2017-04-18T17:01:47.608Z,7.83
2017-04-18T17:03:09.388Z,7.95
2017-04-18T17:04:31.627Z,8.02
2017-04-18T17:05:53.578Z,8.1
2017-04-18T17:07:15.423Z,8
2017-04-18T17:08:37.598Z,7.77
2017-04-18T17:09:59.815Z,7.68
2017-04-18T17:11:22.688Z,7.61
2017-04-18T17:12:45.070Z,7.6
2017-04-18T17:14:07.258Z,7.5
2017-04-18T17:15:29.417Z,7.49
2017-04-18T17:16:52.179Z,7.4
2017-04-18T17:18:13.849Z,7.52
2017-04-18T17:19:36.168Z,7.48
2017-04-18T17:20:57.802Z,7.35
2017-04-18T17:22:20.399Z,7.27
2017-04-18T17:23:42.778Z,7.15
2017-04-18T17:25:05.041Z,7.23
2017-04-18T17:26:26.878Z,7.23
2017-04-18T17:27:48.980Z,7.16
2017-04-18T17:29:11.277Z,7.15
2017-04-18T17:30:33.809Z,6.97
2017-04-18T17:31:55.777Z,6.99
2017-04-18T17:33:18.299Z,7.02
2017-04-18T17:34:40.480Z,6.91
2017-04-18T17:36:02.941Z,6.8
2017-04-18T17:37:25.408Z,6.56
2017-04-18T17:38:48.160Z,6.09
2017-04-18T17:40:10.464Z,5.91
2017-04-18T17:41:32.957Z,5.75
2017-04-18T17:42:55.150Z,5.63
2017-04-18T17:44:17.484Z,5.54
2017-04-18T17:45:39.797Z,5.61
2017-04-18T17:47:02.281Z,5.51
2017-04-18T17:48:24.784Z,5.36
2017-04-18T17:49:47.527Z,5.43
2017-04-18T17:51:09.520Z,5.42
2017-04-18T17:52:32.000Z,5.3
2017-04-18T17:53:54.387Z,5.28
2017-04-18T17:55:16.951Z,5.31
2017-04-18T17:56:38.988Z,5.25
2017-04-18T17:58:01.501Z,5.2
2017-04-18T17:59:23.659Z,5.15
2017-04-18T18:00:46.545Z,5.12
2017-04-18T18:02:08.835Z,5.06
2017-04-18T18:03:31.002Z,5.15
2017-04-18T18:04:53.436Z,5
2017-04-18T18:06:15.576Z,5.04
2017-04-18T18:07:37.448Z,4.97
2017-04-18T18:09:00.002Z,5.02
2017-04-18T18:10:22.176Z,4.92
2017-04-18T18:11:45.036Z,4.88
2017-04-18T18:13:06.938Z,4.85
2017-04-18T18:14:29.417Z,4.88